DLH2DM EDDF-SBGL
Flight info
| Callsign | DLH2DM |
|---|---|
| Flight time | N/A |
| Altitude | 37000 |
| Route | ANEKI2L/18 ANEKI Y163 HERBI Y164 MOPAN DCT LUTIX DCT BENOT DCT NEMOS DCT NINTU DCT MEBAK DCT REPSI DCT LERGA DCT MINSO DCT NARAK DCT AGN DCT MAQAB DCT TIVLI DCT ELSAP DCT ZAR DCT EXEMU DCT PISUS DCT EDIMU DCT ADUXO DCT NUSGO DCT OBIBO DCT NASOS L27 BLN DCT MGA DCT PIMOS DCT GALTO DCT SOLNA/N0484F390 L660 LAY/N0519F290 DCT CABOJ/N0516F300 DCT BIPET/N0484F400 N857 GUNET UN857 BOTNO DCT ERKUS DCT KODOS UL206 ILKOX/N0480F430 UL206 VRI UN401 MOLSU |
| Aircraft | A359/H-SDE2E3GHIJ3J4J5LM1ORWXY/LB1D1 |
Departure
| Time | 2026-05-04 20:54 |
|---|---|
| Airport | Frankfurt Main Airport (EDDF) |
Arrival
| Time | N/A |
|---|---|
| Airport | Rio Galeão – Tom Jobim International Airport (SBGL) |
| Time | Latitude | Longitude | Altitude | Speed | Heading |
|---|---|---|---|---|---|
| 2026-05-04 20:15 | 50.04915 | 8.57874 | 370 ft | 0 kts | 23° |
| 2026-05-04 20:36 | 50.04906 | 8.57868 | 365 ft | 4 kts | 22° |
| 2026-05-04 20:36 | 50.04882 | 8.57853 | 367 ft | 4 kts | 32° |
| 2026-05-04 20:36 | 50.04864 | 8.57826 | 365 ft | 4 kts | 68° |
| 2026-05-04 20:36 | 50.04861 | 8.57788 | 367 ft | 4 kts | 109° |
| 2026-05-04 20:37 | 50.04861 | 8.57779 | 368 ft | 1 kts | 112° |
| 2026-05-04 20:37 | 50.04859 | 8.57778 | 368 ft | 0 kts | 112° |
| 2026-05-04 20:40 | 50.04858 | 8.57781 | 364 ft | 1 kts | 112° |
| 2026-05-04 20:40 | 50.04850 | 8.57811 | 372 ft | 6 kts | 112° |
| 2026-05-04 20:40 | 50.04820 | 8.57882 | 372 ft | 9 kts | 138° |
| 2026-05-04 20:41 | 50.04753 | 8.57916 | 370 ft | 11 kts | 180° |
| 2026-05-04 20:41 | 50.04697 | 8.57848 | 372 ft | 11 kts | 245° |
| 2026-05-04 20:41 | 50.04667 | 8.57729 | 372 ft | 13 kts | 249° |
| 2026-05-04 20:41 | 50.04631 | 8.57576 | 367 ft | 16 kts | 250° |
| 2026-05-04 20:42 | 50.04591 | 8.57411 | 367 ft | 17 kts | 250° |
| 2026-05-04 20:42 | 50.04550 | 8.57238 | 371 ft | 17 kts | 249° |
| 2026-05-04 20:42 | 50.04509 | 8.57066 | 368 ft | 18 kts | 249° |
| 2026-05-04 20:42 | 50.04478 | 8.56940 | 373 ft | 17 kts | 249° |
| 2026-05-04 20:43 | 50.04451 | 8.56822 | 371 ft | 17 kts | 250° |
| 2026-05-04 20:43 | 50.04408 | 8.56643 | 370 ft | 18 kts | 250° |
| 2026-05-04 20:43 | 50.04362 | 8.56452 | 370 ft | 19 kts | 249° |
| 2026-05-04 20:43 | 50.04312 | 8.56244 | 365 ft | 22 kts | 250° |
| 2026-05-04 20:44 | 50.04256 | 8.56012 | 366 ft | 23 kts | 249° |
| 2026-05-04 20:44 | 50.04200 | 8.55774 | 363 ft | 24 kts | 250° |
| 2026-05-04 20:44 | 50.04156 | 8.55590 | 365 ft | 0 kts | 249° |
| 2026-05-04 20:46 | 50.04149 | 8.55561 | 364 ft | 6 kts | 249° |
| 2026-05-04 20:46 | 50.04127 | 8.55469 | 362 ft | 12 kts | 249° |
| 2026-05-04 20:46 | 50.04096 | 8.55339 | 367 ft | 13 kts | 249° |
| 2026-05-04 20:46 | 50.04064 | 8.55209 | 365 ft | 13 kts | 250° |
| 2026-05-04 20:47 | 50.04032 | 8.55070 | 366 ft | 16 kts | 250° |
| 2026-05-04 20:47 | 50.03992 | 8.54902 | 361 ft | 17 kts | 250° |
| 2026-05-04 20:47 | 50.03948 | 8.54717 | 360 ft | 19 kts | 249° |
| 2026-05-04 20:47 | 50.03900 | 8.54517 | 359 ft | 21 kts | 250° |
| 2026-05-04 20:48 | 50.03836 | 8.54314 | 362 ft | 21 kts | 237° |
| 2026-05-04 20:48 | 50.03771 | 8.54107 | 361 ft | 21 kts | 248° |
| 2026-05-04 20:48 | 50.03719 | 8.53887 | 357 ft | 22 kts | 250° |
| 2026-05-04 20:48 | 50.03665 | 8.53658 | 354 ft | 23 kts | 249° |
| 2026-05-04 20:49 | 50.03607 | 8.53426 | 356 ft | 23 kts | 250° |
| 2026-05-04 20:49 | 50.03550 | 8.53185 | 351 ft | 24 kts | 250° |
| 2026-05-04 20:49 | 50.03492 | 8.52949 | 350 ft | 22 kts | 248° |
| 2026-05-04 20:49 | 50.03447 | 8.52770 | 352 ft | 18 kts | 248° |
| 2026-05-04 20:50 | 50.03395 | 8.52609 | 351 ft | 13 kts | 216° |
| 2026-05-04 20:50 | 50.03353 | 8.52595 | 350 ft | 0 kts | 179° |
| 2026-05-04 20:53 | 50.03276 | 8.52596 | 351 ft | 35 kts | 179° |
| 2026-05-04 20:54 | 50.02822 | 8.52601 | 348 ft | 93 kts | 179° |
| 2026-05-04 20:54 | 50.01994 | 8.52607 | 337 ft | 143 kts | 179° |
| 2026-05-04 20:54 | 50.00858 | 8.52613 | 408 ft | 178 kts | 180° |
| 2026-05-04 20:54 | 49.99638 | 8.52660 | 1095 ft | 168 kts | 179° |
| 2026-05-04 20:55 | 49.98497 | 8.52722 | 1727 ft | 162 kts | 178° |
| 2026-05-04 20:55 | 49.97340 | 8.52790 | 1982 ft | 173 kts | 178° |
| 2026-05-04 20:55 | 49.96088 | 8.52863 | 2174 ft | 188 kts | 178° |
| 2026-05-04 20:55 | 49.94741 | 8.52951 | 2385 ft | 204 kts | 178° |
| 2026-05-04 20:56 | 49.93267 | 8.53053 | 2593 ft | 220 kts | 178° |
| 2026-05-04 20:56 | 49.91678 | 8.53166 | 2962 ft | 228 kts | 178° |
| 2026-05-04 20:56 | 49.90110 | 8.53279 | 3536 ft | 228 kts | 178° |
| 2026-05-04 20:56 | 49.88525 | 8.53394 | 4108 ft | 228 kts | 178° |
| 2026-05-04 20:57 | 49.86936 | 8.53510 | 4713 ft | 228 kts | 178° |
| 2026-05-04 20:57 | 49.85359 | 8.53625 | 5304 ft | 227 kts | 178° |
| 2026-05-04 20:57 | 49.84293 | 8.53703 | 5679 ft | 227 kts | 179° |
| 2026-05-04 20:57 | 49.82737 | 8.53816 | 6244 ft | 227 kts | 179° |
| 2026-05-04 20:58 | 49.81157 | 8.53931 | 6783 ft | 227 kts | 179° |
| 2026-05-04 20:58 | 49.79570 | 8.54046 | 7300 ft | 229 kts | 179° |
| 2026-05-04 20:58 | 49.77975 | 8.54093 | 7792 ft | 230 kts | 184° |
| 2026-05-04 20:58 | 49.76332 | 8.53926 | 8105 ft | 243 kts | 186° |
| 2026-05-04 20:59 | 49.74607 | 8.53692 | 8367 ft | 256 kts | 186° |
| 2026-05-04 20:59 | 49.73026 | 8.53476 | 8730 ft | 262 kts | 186° |
| 2026-05-04 20:59 | 49.71191 | 8.53228 | 9255 ft | 266 kts | 186° |
| 2026-05-04 20:59 | 49.69360 | 8.52984 | 9806 ft | 269 kts | 186° |
| 2026-05-04 21:00 | 49.67477 | 8.52733 | 10234 ft | 276 kts | 186° |
| 2026-05-04 21:00 | 49.65522 | 8.52475 | 10467 ft | 289 kts | 186° |
| 2026-05-04 21:00 | 49.63465 | 8.52202 | 10694 ft | 302 kts | 186° |
| 2026-05-04 21:00 | 49.61319 | 8.51918 | 10937 ft | 314 kts | 186° |
| 2026-05-04 21:01 | 49.59124 | 8.51628 | 11171 ft | 326 kts | 186° |
| 2026-05-04 21:01 | 49.56815 | 8.51324 | 11378 ft | 337 kts | 186° |
| 2026-05-04 21:01 | 49.54443 | 8.51013 | 11601 ft | 348 kts | 186° |
| 2026-05-04 21:01 | 49.51987 | 8.50690 | 11808 ft | 358 kts | 185° |
| 2026-05-04 21:02 | 49.49478 | 8.50362 | 12084 ft | 365 kts | 185° |
| 2026-05-04 21:02 | 49.46957 | 8.50032 | 12477 ft | 368 kts | 185° |
| 2026-05-04 21:02 | 49.44382 | 8.49695 | 12878 ft | 372 kts | 185° |
| 2026-05-04 21:02 | 49.41787 | 8.49355 | 13260 ft | 375 kts | 185° |
| 2026-05-04 21:03 | 49.39206 | 8.49018 | 13648 ft | 378 kts | 185° |
| 2026-05-04 21:03 | 49.36574 | 8.48675 | 14008 ft | 380 kts | 185° |
| 2026-05-04 21:03 | 49.33927 | 8.48330 | 14386 ft | 382 kts | 185° |
| 2026-05-04 21:03 | 49.31266 | 8.47983 | 14762 ft | 384 kts | 185° |
| 2026-05-04 21:04 | 49.28311 | 8.47594 | 15178 ft | 386 kts | 185° |
| 2026-05-04 21:04 | 49.25618 | 8.47238 | 15557 ft | 387 kts | 185° |
| 2026-05-04 21:04 | 49.22919 | 8.46888 | 15921 ft | 389 kts | 185° |
| 2026-05-04 21:04 | 49.20246 | 8.46543 | 16303 ft | 391 kts | 185° |
| 2026-05-04 21:05 | 49.17536 | 8.46194 | 16700 ft | 392 kts | 185° |
| 2026-05-04 21:05 | 49.14803 | 8.45842 | 17067 ft | 394 kts | 185° |
| 2026-05-04 21:05 | 49.12060 | 8.45487 | 17432 ft | 396 kts | 185° |
| 2026-05-04 21:05 | 49.09300 | 8.45130 | 17789 ft | 398 kts | 185° |
| 2026-05-04 21:06 | 49.06575 | 8.44641 | 18122 ft | 399 kts | 190° |
| 2026-05-04 21:06 | 49.03833 | 8.43854 | 18470 ft | 400 kts | 191° |
| 2026-05-04 21:06 | 49.01083 | 8.42965 | 18769 ft | 402 kts | 192° |
| 2026-05-04 21:06 | 48.98366 | 8.42031 | 19059 ft | 404 kts | 193° |
| 2026-05-04 21:07 | 48.95805 | 8.41127 | 19334 ft | 407 kts | 193° |
| 2026-05-04 21:07 | 48.93039 | 8.40146 | 19631 ft | 408 kts | 193° |
| 2026-05-04 21:07 | 48.90263 | 8.39165 | 19927 ft | 410 kts | 193° |
| 2026-05-04 21:07 | 48.87501 | 8.38195 | 20220 ft | 411 kts | 193° |
| 2026-05-04 21:08 | 48.84701 | 8.37219 | 20506 ft | 413 kts | 193° |
| 2026-05-04 21:08 | 48.81905 | 8.36249 | 20797 ft | 415 kts | 193° |
| 2026-05-04 21:08 | 48.79074 | 8.35270 | 21081 ft | 417 kts | 193° |
| 2026-05-04 21:08 | 48.76240 | 8.34275 | 21363 ft | 419 kts | 194° |
| 2026-05-04 21:09 | 48.73389 | 8.33239 | 21613 ft | 421 kts | 194° |
| 2026-05-04 21:09 | 48.70574 | 8.32204 | 21910 ft | 422 kts | 194° |
| 2026-05-04 21:09 | 48.67714 | 8.31148 | 22188 ft | 424 kts | 194° |
| 2026-05-04 21:09 | 48.64843 | 8.30092 | 22479 ft | 425 kts | 194° |
| 2026-05-04 21:10 | 48.61947 | 8.29030 | 22764 ft | 427 kts | 194° |
| 2026-05-04 21:10 | 48.59045 | 8.27972 | 23039 ft | 428 kts | 194° |
| 2026-05-04 21:10 | 48.56171 | 8.26927 | 23312 ft | 430 kts | 194° |
| 2026-05-04 21:10 | 48.53242 | 8.25864 | 23591 ft | 432 kts | 194° |
| 2026-05-04 21:11 | 48.50321 | 8.24807 | 23835 ft | 433 kts | 194° |
| 2026-05-04 21:11 | 48.47377 | 8.23741 | 24085 ft | 433 kts | 194° |
| 2026-05-04 21:11 | 48.44471 | 8.22681 | 24355 ft | 434 kts | 194° |
| 2026-05-04 21:11 | 48.41520 | 8.21604 | 24637 ft | 435 kts | 194° |
| 2026-05-04 21:12 | 48.38566 | 8.20525 | 24905 ft | 435 kts | 194° |
| 2026-05-04 21:12 | 48.35615 | 8.19448 | 25158 ft | 436 kts | 195° |
| 2026-05-04 21:12 | 48.32696 | 8.18385 | 25440 ft | 436 kts | 195° |
| 2026-05-04 21:12 | 48.29741 | 8.17311 | 25754 ft | 436 kts | 195° |
| 2026-05-04 21:13 | 48.26785 | 8.16206 | 26013 ft | 437 kts | 197° |
| 2026-05-04 21:13 | 48.23902 | 8.14714 | 26276 ft | 437 kts | 201° |
| 2026-05-04 21:13 | 48.21092 | 8.12960 | 26471 ft | 438 kts | 201° |
| 2026-05-04 21:13 | 48.18332 | 8.11164 | 26705 ft | 439 kts | 202° |
| 2026-05-04 21:14 | 48.15551 | 8.09262 | 26936 ft | 439 kts | 203° |
| 2026-05-04 21:14 | 48.12777 | 8.07289 | 27157 ft | 440 kts | 204° |
| 2026-05-04 21:14 | 48.10015 | 8.05274 | 27409 ft | 440 kts | 204° |
| 2026-05-04 21:14 | 48.07275 | 8.03250 | 27687 ft | 440 kts | 204° |
| 2026-05-04 21:15 | 48.04550 | 8.01235 | 27877 ft | 442 kts | 204° |
| 2026-05-04 21:15 | 48.01784 | 7.99191 | 28080 ft | 443 kts | 204° |
| 2026-05-04 21:15 | 47.99010 | 7.97147 | 28291 ft | 444 kts | 204° |
| 2026-05-04 21:15 | 47.96226 | 7.95099 | 28518 ft | 445 kts | 204° |
| 2026-05-04 21:16 | 47.93470 | 7.93079 | 28691 ft | 446 kts | 204° |
| 2026-05-04 21:16 | 47.90676 | 7.91035 | 28899 ft | 447 kts | 204° |
| 2026-05-04 21:16 | 47.87868 | 7.88984 | 29094 ft | 448 kts | 204° |
| 2026-05-04 21:16 | 47.85068 | 7.86942 | 29271 ft | 449 kts | 204° |
| 2026-05-04 21:17 | 47.82288 | 7.84919 | 29457 ft | 450 kts | 204° |
| 2026-05-04 21:17 | 47.79467 | 7.82866 | 29670 ft | 451 kts | 204° |
| 2026-05-04 21:17 | 47.76643 | 7.80811 | 29858 ft | 452 kts | 204° |
| 2026-05-04 21:17 | 47.73817 | 7.78758 | 30042 ft | 453 kts | 204° |
| 2026-05-04 21:18 | 47.70984 | 7.76706 | 30231 ft | 453 kts | 204° |
| 2026-05-04 21:18 | 47.68144 | 7.74651 | 30452 ft | 453 kts | 204° |
| 2026-05-04 21:18 | 47.65335 | 7.72623 | 30684 ft | 452 kts | 204° |
| 2026-05-04 21:18 | 47.62502 | 7.70582 | 30897 ft | 452 kts | 204° |
| 2026-05-04 21:19 | 47.59675 | 7.68549 | 31133 ft | 451 kts | 204° |
| 2026-05-04 21:19 | 47.56856 | 7.66523 | 31346 ft | 451 kts | 204° |
| 2026-05-04 21:19 | 47.54022 | 7.64490 | 31546 ft | 450 kts | 204° |
| 2026-05-04 21:19 | 47.51224 | 7.62486 | 31662 ft | 452 kts | 204° |
| 2026-05-04 21:20 | 47.48393 | 7.60457 | 31860 ft | 452 kts | 204° |
| 2026-05-04 21:20 | 47.45562 | 7.58429 | 32092 ft | 451 kts | 204° |
| 2026-05-04 21:20 | 47.42743 | 7.56412 | 32304 ft | 450 kts | 204° |
| 2026-05-04 21:20 | 47.39914 | 7.54391 | 32501 ft | 450 kts | 204° |
| 2026-05-04 21:21 | 47.37102 | 7.52385 | 32684 ft | 449 kts | 205° |
| 2026-05-04 21:21 | 47.34315 | 7.50401 | 32894 ft | 448 kts | 204° |
| 2026-05-04 21:21 | 47.31504 | 7.48403 | 33067 ft | 449 kts | 205° |
| 2026-05-04 21:21 | 47.28696 | 7.46408 | 33289 ft | 448 kts | 205° |
| 2026-05-04 21:22 | 47.25899 | 7.44420 | 33633 ft | 444 kts | 205° |
| 2026-05-04 21:22 | 47.23111 | 7.42443 | 33813 ft | 443 kts | 205° |
| 2026-05-04 21:22 | 47.17727 | 7.38081 | 34028 ft | 443 kts | 214° |
| 2026-05-04 21:23 | 47.15327 | 7.35237 | 34181 ft | 442 kts | 220° |
| 2026-05-04 21:23 | 47.13205 | 7.31952 | 34333 ft | 440 kts | 226° |
| 2026-05-04 21:23 | 47.11265 | 7.28545 | 34507 ft | 440 kts | 227° |
| 2026-05-04 21:23 | 47.09338 | 7.25036 | 34572 ft | 441 kts | 228° |
| 2026-05-04 21:24 | 47.07431 | 7.21501 | 34677 ft | 442 kts | 228° |
| 2026-05-04 21:24 | 47.05522 | 7.17949 | 34776 ft | 442 kts | 228° |
| 2026-05-04 21:24 | 47.03631 | 7.14437 | 34887 ft | 443 kts | 228° |
| 2026-05-04 21:24 | 47.01716 | 7.10904 | 34996 ft | 443 kts | 228° |
| 2026-05-04 21:25 | 46.99791 | 7.07367 | 35117 ft | 443 kts | 228° |
| 2026-05-04 21:25 | 46.97857 | 7.03828 | 35211 ft | 444 kts | 228° |
| 2026-05-04 21:25 | 46.95945 | 7.00339 | 35316 ft | 444 kts | 227° |
| 2026-05-04 21:25 | 46.94007 | 6.96807 | 35383 ft | 445 kts | 227° |
| 2026-05-04 21:26 | 46.92066 | 6.93273 | 35550 ft | 444 kts | 227° |
| 2026-05-04 21:26 | 46.90131 | 6.89752 | 35690 ft | 443 kts | 227° |
| 2026-05-04 21:26 | 46.86248 | 6.82711 | 35858 ft | 444 kts | 227° |
| 2026-05-04 21:27 | 46.82380 | 6.75722 | 36045 ft | 445 kts | 227° |
| 2026-05-04 21:27 | 46.78479 | 6.68692 | 36208 ft | 445 kts | 227° |
| 2026-05-04 21:28 | 46.74561 | 6.61649 | 36296 ft | 447 kts | 227° |
| 2026-05-04 21:28 | 46.70656 | 6.54641 | 36478 ft | 447 kts | 227° |
| 2026-05-04 21:29 | 46.66723 | 6.47600 | 36700 ft | 446 kts | 227° |
| 2026-05-04 21:29 | 46.64768 | 6.44105 | 36935 ft | 443 kts | 227° |
| 2026-05-04 21:29 | 46.62842 | 6.40665 | 37002 ft | 443 kts | 227° |
| 2026-05-04 21:30 | 46.58922 | 6.33683 | 37004 ft | 447 kts | 227° |
| 2026-05-04 21:30 | 46.54956 | 6.26649 | 36999 ft | 450 kts | 227° |
| 2026-05-04 21:31 | 46.49651 | 6.17277 | 36996 ft | 454 kts | 227° |
| 2026-05-04 21:32 | 46.44971 | 6.09030 | 36992 ft | 454 kts | 227° |
| 2026-05-04 21:32 | 46.41625 | 6.03143 | 37000 ft | 454 kts | 227° |
| 2026-05-04 21:33 | 46.37602 | 5.96080 | 36995 ft | 454 kts | 226° |
| 2026-05-04 21:33 | 46.33567 | 5.89017 | 36989 ft | 455 kts | 226° |
| 2026-05-04 21:34 | 46.29539 | 5.81985 | 36990 ft | 455 kts | 226° |
| 2026-05-04 21:34 | 46.25491 | 5.74934 | 36983 ft | 455 kts | 226° |
| 2026-05-04 21:35 | 46.21459 | 5.67928 | 36977 ft | 455 kts | 226° |
| 2026-05-04 21:35 | 46.17400 | 5.60895 | 36976 ft | 454 kts | 226° |
| 2026-05-04 21:36 | 46.13503 | 5.53755 | 36981 ft | 456 kts | 230° |
| 2026-05-04 21:36 | 46.09847 | 5.46251 | 36971 ft | 457 kts | 231° |
| 2026-05-04 21:37 | 46.06254 | 5.38757 | 36966 ft | 457 kts | 231° |
| 2026-05-04 21:37 | 46.02632 | 5.31209 | 36963 ft | 456 kts | 231° |
| 2026-05-04 21:38 | 45.99034 | 5.23747 | 36965 ft | 455 kts | 231° |
| 2026-05-04 21:38 | 45.95405 | 5.16250 | 36961 ft | 455 kts | 231° |
| 2026-05-04 21:39 | 45.91793 | 5.08810 | 36965 ft | 456 kts | 230° |
| 2026-05-04 21:39 | 45.88168 | 5.01363 | 36962 ft | 457 kts | 230° |
| 2026-05-04 21:40 | 45.84522 | 4.93892 | 36964 ft | 456 kts | 230° |
| 2026-05-04 21:40 | 45.80881 | 4.86451 | 36965 ft | 454 kts | 230° |
| 2026-05-04 21:41 | 45.77247 | 4.79040 | 36964 ft | 454 kts | 230° |
| 2026-05-04 21:41 | 45.73606 | 4.71638 | 36963 ft | 454 kts | 230° |
| 2026-05-04 21:42 | 45.69978 | 4.64280 | 36956 ft | 454 kts | 230° |
| 2026-05-04 21:42 | 45.66323 | 4.56881 | 36957 ft | 454 kts | 230° |
| 2026-05-04 21:43 | 45.62688 | 4.49546 | 36963 ft | 454 kts | 230° |
| 2026-05-04 21:43 | 45.59045 | 4.42212 | 36971 ft | 453 kts | 230° |
| 2026-05-04 21:44 | 45.55379 | 4.34850 | 36964 ft | 454 kts | 230° |
| 2026-05-04 21:44 | 45.51731 | 4.27544 | 36983 ft | 454 kts | 230° |
| 2026-05-04 21:45 | 45.48052 | 4.20197 | 36964 ft | 454 kts | 229° |
| 2026-05-04 21:45 | 45.44373 | 4.12877 | 36963 ft | 454 kts | 229° |
| 2026-05-04 21:46 | 45.40702 | 4.05592 | 36961 ft | 454 kts | 229° |
| 2026-05-04 21:46 | 45.37028 | 3.98317 | 36960 ft | 454 kts | 229° |
| 2026-05-04 21:47 | 45.33330 | 3.91012 | 36956 ft | 454 kts | 229° |
| 2026-05-04 21:47 | 45.29651 | 3.83765 | 36962 ft | 454 kts | 229° |
| 2026-05-04 21:48 | 45.25946 | 3.76483 | 36957 ft | 454 kts | 229° |
| 2026-05-04 21:48 | 45.22302 | 3.69225 | 36958 ft | 454 kts | 230° |
| 2026-05-04 21:49 | 45.18684 | 3.61833 | 36962 ft | 454 kts | 230° |
| 2026-05-04 21:49 | 45.15091 | 3.54507 | 36958 ft | 454 kts | 230° |
| 2026-05-04 21:50 | 45.11492 | 3.47220 | 36956 ft | 453 kts | 230° |
| 2026-05-04 21:50 | 45.07861 | 3.39907 | 36957 ft | 453 kts | 230° |
| 2026-05-04 21:51 | 45.04247 | 3.32648 | 36957 ft | 453 kts | 230° |
| 2026-05-04 21:51 | 45.00614 | 3.25366 | 36961 ft | 453 kts | 230° |
| 2026-05-04 21:52 | 44.96969 | 3.18080 | 36960 ft | 453 kts | 230° |
| 2026-05-04 21:52 | 44.93351 | 3.10867 | 36963 ft | 453 kts | 230° |
| 2026-05-04 21:53 | 44.89717 | 3.03640 | 36981 ft | 453 kts | 230° |
| 2026-05-04 21:53 | 44.86064 | 2.96393 | 36961 ft | 452 kts | 229° |
| 2026-05-04 21:54 | 44.82443 | 2.89104 | 36957 ft | 453 kts | 231° |
| 2026-05-04 21:54 | 44.79039 | 2.81649 | 36963 ft | 454 kts | 232° |
| 2026-05-04 21:55 | 44.75652 | 2.74147 | 36962 ft | 453 kts | 232° |
| 2026-05-04 21:55 | 44.72253 | 2.66733 | 36988 ft | 453 kts | 232° |
| 2026-05-04 21:56 | 44.68807 | 2.59300 | 36959 ft | 452 kts | 232° |
| 2026-05-04 21:56 | 44.65363 | 2.51894 | 36957 ft | 452 kts | 231° |
| 2026-05-04 21:57 | 44.61931 | 2.44542 | 36963 ft | 452 kts | 231° |
| 2026-05-04 21:57 | 44.58474 | 2.37152 | 36972 ft | 452 kts | 231° |
| 2026-05-04 21:58 | 44.55017 | 2.29780 | 36973 ft | 452 kts | 231° |
| 2026-05-04 21:58 | 44.51570 | 2.22443 | 36967 ft | 452 kts | 231° |
| 2026-05-04 21:59 | 44.48092 | 2.15061 | 36968 ft | 453 kts | 231° |
| 2026-05-04 21:59 | 44.44634 | 2.07738 | 36969 ft | 453 kts | 231° |
| 2026-05-04 22:00 | 44.41155 | 2.00392 | 36971 ft | 453 kts | 231° |
| 2026-05-04 22:00 | 44.37678 | 1.93067 | 36966 ft | 452 kts | 231° |
| 2026-05-04 22:01 | 44.34205 | 1.85770 | 36976 ft | 453 kts | 231° |
| 2026-05-04 22:01 | 44.30703 | 1.78429 | 36974 ft | 454 kts | 231° |
| 2026-05-04 22:02 | 44.27207 | 1.71065 | 36974 ft | 454 kts | 232° |
| 2026-05-04 22:02 | 44.23817 | 1.63658 | 36973 ft | 455 kts | 233° |
| 2026-05-04 22:03 | 44.20422 | 1.56211 | 36971 ft | 454 kts | 233° |
| 2026-05-04 22:03 | 44.17011 | 1.48790 | 36981 ft | 455 kts | 233° |
| 2026-05-04 22:04 | 44.13572 | 1.41355 | 36980 ft | 457 kts | 232° |
| 2026-05-04 22:04 | 44.10141 | 1.33959 | 36980 ft | 457 kts | 232° |
| 2026-05-04 22:05 | 44.06680 | 1.26518 | 36979 ft | 457 kts | 232° |
| 2026-05-04 22:05 | 44.03238 | 1.19136 | 36983 ft | 457 kts | 232° |
| 2026-05-04 22:06 | 43.99791 | 1.11762 | 36992 ft | 456 kts | 232° |
| 2026-05-04 22:06 | 43.96335 | 1.04386 | 36993 ft | 454 kts | 232° |
| 2026-05-04 22:07 | 43.92902 | 0.97080 | 36991 ft | 454 kts | 232° |
| 2026-05-04 22:07 | 43.89386 | 0.89761 | 37008 ft | 452 kts | 229° |
| 2026-05-04 22:08 | 43.85129 | 0.83482 | 36995 ft | 449 kts | 220° |
| 2026-05-04 22:08 | 43.80468 | 0.77652 | 37000 ft | 452 kts | 218° |
| 2026-05-04 22:09 | 43.75763 | 0.71921 | 37010 ft | 454 kts | 218° |
| 2026-05-04 22:09 | 43.71016 | 0.66121 | 37012 ft | 454 kts | 218° |
| 2026-05-04 22:10 | 43.66303 | 0.60342 | 37017 ft | 454 kts | 218° |
| 2026-05-04 22:10 | 43.61566 | 0.54532 | 37011 ft | 454 kts | 218° |
| 2026-05-04 22:11 | 43.56858 | 0.48772 | 37023 ft | 454 kts | 218° |
| 2026-05-04 22:11 | 43.52135 | 0.43007 | 37023 ft | 454 kts | 218° |
| 2026-05-04 22:12 | 43.47403 | 0.37243 | 37048 ft | 454 kts | 218° |
| 2026-05-04 22:12 | 43.42698 | 0.31527 | 37018 ft | 453 kts | 219° |
| 2026-05-04 22:13 | 43.37955 | 0.25775 | 37035 ft | 454 kts | 219° |
| 2026-05-04 22:13 | 43.33227 | 0.20059 | 37039 ft | 454 kts | 218° |
| 2026-05-04 22:14 | 43.28473 | 0.14323 | 37039 ft | 454 kts | 218° |
| 2026-05-04 22:14 | 43.23747 | 0.08633 | 37042 ft | 454 kts | 218° |
| 2026-05-04 22:15 | 43.18991 | 0.02919 | 37043 ft | 454 kts | 219° |
| 2026-05-04 22:15 | 43.14259 | -0.02755 | 37024 ft | 454 kts | 219° |
| 2026-05-04 22:16 | 43.09487 | -0.08466 | 37020 ft | 455 kts | 219° |
| 2026-05-04 22:16 | 43.04703 | -0.14177 | 37026 ft | 456 kts | 218° |
| 2026-05-04 22:17 | 42.99949 | -0.19839 | 37021 ft | 455 kts | 219° |
| 2026-05-04 22:17 | 42.95159 | -0.25531 | 37028 ft | 455 kts | 219° |
| 2026-05-04 22:18 | 42.90407 | -0.31164 | 37024 ft | 454 kts | 219° |
| 2026-05-04 22:18 | 42.85620 | -0.36831 | 37020 ft | 455 kts | 219° |
| 2026-05-04 22:19 | 42.80707 | -0.42209 | 37027 ft | 453 kts | 211° |
| 2026-05-04 22:19 | 42.75038 | -0.46005 | 37006 ft | 456 kts | 201° |
| 2026-05-04 22:20 | 42.69092 | -0.49165 | 37009 ft | 460 kts | 200° |
| 2026-05-04 22:20 | 42.63129 | -0.52224 | 37008 ft | 460 kts | 200° |
| 2026-05-04 22:21 | 42.57141 | -0.55324 | 37000 ft | 460 kts | 200° |
| 2026-05-04 22:21 | 42.52166 | -0.57922 | 36995 ft | 460 kts | 200° |
| 2026-05-04 22:22 | 42.46184 | -0.61053 | 36997 ft | 460 kts | 200° |
| 2026-05-04 22:22 | 42.40240 | -0.64154 | 36975 ft | 460 kts | 200° |
| 2026-05-04 22:23 | 42.34264 | -0.67264 | 36995 ft | 459 kts | 201° |
| 2026-05-04 22:23 | 42.28282 | -0.70369 | 36994 ft | 459 kts | 201° |
| 2026-05-04 22:24 | 42.22344 | -0.73448 | 36991 ft | 459 kts | 201° |
| 2026-05-04 22:24 | 42.16363 | -0.76543 | 37003 ft | 459 kts | 201° |
| 2026-05-04 22:25 | 42.10385 | -0.79630 | 36975 ft | 460 kts | 201° |
| 2026-05-04 22:25 | 42.04438 | -0.82695 | 36988 ft | 460 kts | 201° |
| 2026-05-04 22:26 | 41.98442 | -0.85779 | 36987 ft | 460 kts | 201° |
| 2026-05-04 22:26 | 41.92458 | -0.88847 | 36984 ft | 459 kts | 201° |
| 2026-05-04 22:27 | 41.86528 | -0.91885 | 36988 ft | 459 kts | 201° |
| 2026-05-04 22:27 | 41.80580 | -0.94926 | 36993 ft | 459 kts | 201° |
| 2026-05-04 22:28 | 41.74593 | -0.97945 | 36982 ft | 458 kts | 199° |
| 2026-05-04 22:28 | 41.68609 | -1.00789 | 36987 ft | 458 kts | 199° |
| 2026-05-04 22:29 | 41.62979 | -1.04632 | 37009 ft | 451 kts | 211° |
| 2026-05-04 22:29 | 41.57779 | -1.09257 | 37003 ft | 451 kts | 213° |
| 2026-05-04 22:30 | 41.52598 | -1.14036 | 37005 ft | 451 kts | 213° |
| 2026-05-04 22:30 | 41.47455 | -1.18778 | 37008 ft | 448 kts | 213° |
| 2026-05-04 22:31 | 41.42353 | -1.23460 | 37010 ft | 447 kts | 213° |
| 2026-05-04 22:31 | 41.37216 | -1.28152 | 37010 ft | 447 kts | 213° |
| 2026-05-04 22:32 | 41.32071 | -1.32835 | 37010 ft | 447 kts | 213° |
| 2026-05-04 22:32 | 41.26929 | -1.37504 | 37007 ft | 446 kts | 213° |
| 2026-05-04 22:33 | 41.21833 | -1.42134 | 37017 ft | 446 kts | 213° |
| 2026-05-04 22:33 | 41.16707 | -1.46787 | 37018 ft | 446 kts | 213° |
| 2026-05-04 22:34 | 41.11572 | -1.51431 | 37000 ft | 446 kts | 213° |
| 2026-05-04 22:34 | 41.06446 | -1.56056 | 37018 ft | 445 kts | 213° |
| 2026-05-04 22:35 | 41.01364 | -1.60634 | 37018 ft | 444 kts | 213° |
| 2026-05-04 22:35 | 40.96242 | -1.65241 | 37017 ft | 444 kts | 213° |
| 2026-05-04 22:36 | 40.91118 | -1.69840 | 37021 ft | 444 kts | 213° |
| 2026-05-04 22:36 | 40.85998 | -1.74425 | 37015 ft | 443 kts | 213° |
| 2026-05-04 22:37 | 40.80902 | -1.78979 | 37020 ft | 443 kts | 214° |
| 2026-05-04 22:37 | 40.75828 | -1.83511 | 37020 ft | 442 kts | 213° |
| 2026-05-04 22:38 | 40.70716 | -1.88064 | 37019 ft | 443 kts | 213° |
| 2026-05-04 22:38 | 40.65603 | -1.92604 | 37024 ft | 443 kts | 213° |
| 2026-05-04 22:39 | 40.60518 | -1.97116 | 37016 ft | 444 kts | 213° |
| 2026-05-04 22:39 | 40.55377 | -2.01665 | 37019 ft | 444 kts | 213° |
| 2026-05-04 22:40 | 40.50233 | -2.06207 | 37015 ft | 444 kts | 213° |
| 2026-05-04 22:40 | 40.45121 | -2.10714 | 36999 ft | 444 kts | 214° |
| 2026-05-04 22:41 | 40.39979 | -2.15238 | 37016 ft | 444 kts | 213° |
| 2026-05-04 22:41 | 40.34878 | -2.19720 | 37017 ft | 444 kts | 213° |
| 2026-05-04 22:42 | 40.29743 | -2.24224 | 37011 ft | 444 kts | 213° |
| 2026-05-04 22:42 | 40.24606 | -2.28721 | 37013 ft | 444 kts | 213° |
| 2026-05-04 22:43 | 40.19463 | -2.33214 | 37028 ft | 443 kts | 214° |
| 2026-05-04 22:43 | 40.15527 | -2.36647 | 37030 ft | 443 kts | 214° |
| 2026-05-04 22:44 | 40.10397 | -2.41115 | 37029 ft | 443 kts | 214° |
| 2026-05-04 22:44 | 40.05279 | -2.45564 | 37014 ft | 443 kts | 214° |
| 2026-05-04 22:45 | 40.00126 | -2.50035 | 36993 ft | 443 kts | 214° |
| 2026-05-04 22:45 | 39.92455 | -2.56676 | 37022 ft | 441 kts | 214° |
| 2026-05-04 22:46 | 39.87359 | -2.61080 | 37025 ft | 441 kts | 214° |
| 2026-05-04 22:46 | 39.82229 | -2.65503 | 37026 ft | 441 kts | 214° |
| 2026-05-04 22:47 | 39.77132 | -2.69888 | 36982 ft | 441 kts | 214° |
| 2026-05-04 22:47 | 39.72009 | -2.74289 | 37027 ft | 440 kts | 215° |
| 2026-05-04 22:48 | 39.66904 | -2.78671 | 37014 ft | 434 kts | 215° |
| 2026-05-04 22:48 | 39.64456 | -2.80774 | 37014 ft | 421 kts | 215° |
| 2026-05-04 22:48 | 39.62128 | -2.82784 | 37021 ft | 415 kts | 215° |
| 2026-05-04 22:49 | 39.57340 | -2.86925 | 37023 ft | 413 kts | 215° |
| 2026-05-04 22:49 | 39.52639 | -2.90969 | 37009 ft | 399 kts | 216° |
| 2026-05-04 22:50 | 39.48055 | -2.94908 | 37021 ft | 397 kts | 216° |
| 2026-05-04 22:50 | 39.43447 | -2.98847 | 37023 ft | 397 kts | 215° |
| 2026-05-04 22:51 | 39.38665 | -3.02465 | 37027 ft | 401 kts | 207° |
| 2026-05-04 22:51 | 39.33485 | -3.05168 | 37030 ft | 405 kts | 204° |
| 2026-05-04 22:52 | 39.28174 | -3.07730 | 37022 ft | 407 kts | 204° |
| 2026-05-04 22:52 | 39.22842 | -3.10280 | 37043 ft | 408 kts | 204° |
| 2026-05-04 22:53 | 39.17534 | -3.12837 | 37023 ft | 408 kts | 204° |
| 2026-05-04 22:53 | 39.12203 | -3.15417 | 37049 ft | 408 kts | 204° |
| 2026-05-04 22:54 | 39.06918 | -3.17974 | 37021 ft | 408 kts | 204° |
| 2026-05-04 22:54 | 39.01587 | -3.20550 | 37041 ft | 409 kts | 204° |
| 2026-05-04 22:55 | 38.96269 | -3.23112 | 37040 ft | 412 kts | 204° |
| 2026-05-04 22:55 | 38.90874 | -3.25702 | 37044 ft | 415 kts | 204° |
| 2026-05-04 22:56 | 38.85436 | -3.28306 | 37044 ft | 418 kts | 204° |
| 2026-05-04 22:56 | 38.79965 | -3.30921 | 37043 ft | 420 kts | 203° |
| 2026-05-04 22:57 | 38.74448 | -3.33552 | 37044 ft | 423 kts | 203° |
| 2026-05-04 22:57 | 38.68930 | -3.36181 | 37040 ft | 427 kts | 203° |
| 2026-05-04 22:58 | 38.63360 | -3.38830 | 37040 ft | 430 kts | 203° |
| 2026-05-04 22:58 | 38.57733 | -3.41501 | 37037 ft | 432 kts | 203° |
| 2026-05-04 22:59 | 38.52108 | -3.44167 | 37041 ft | 434 kts | 203° |
| 2026-05-04 22:59 | 38.46417 | -3.46862 | 37041 ft | 436 kts | 203° |
| 2026-05-04 23:00 | 38.40694 | -3.49570 | 37044 ft | 439 kts | 203° |
| 2026-05-04 23:00 | 38.34933 | -3.52291 | 37039 ft | 442 kts | 203° |
| 2026-05-04 23:01 | 38.29179 | -3.55000 | 37034 ft | 444 kts | 203° |
| 2026-05-04 23:01 | 38.23359 | -3.57736 | 37034 ft | 446 kts | 203° |
| 2026-05-04 23:02 | 38.17523 | -3.60476 | 37032 ft | 448 kts | 203° |
| 2026-05-04 23:02 | 38.11690 | -3.63316 | 37010 ft | 445 kts | 206° |
| 2026-05-04 23:03 | 38.06054 | -3.66552 | 37029 ft | 445 kts | 207° |
| 2026-05-04 23:03 | 38.00457 | -3.69841 | 37031 ft | 445 kts | 207° |
| 2026-05-04 23:04 | 37.94802 | -3.73087 | 37026 ft | 446 kts | 206° |
| 2026-05-04 23:04 | 37.89120 | -3.76295 | 37001 ft | 446 kts | 206° |
| 2026-05-04 23:05 | 37.83480 | -3.79464 | 37040 ft | 446 kts | 206° |
| 2026-05-04 23:05 | 37.77793 | -3.82655 | 37042 ft | 446 kts | 206° |
| 2026-05-04 23:06 | 37.72100 | -3.85852 | 37046 ft | 447 kts | 206° |
| 2026-05-04 23:06 | 37.66445 | -3.89020 | 37047 ft | 447 kts | 206° |
| 2026-05-04 23:07 | 37.60757 | -3.92200 | 37051 ft | 447 kts | 206° |
| 2026-05-04 23:07 | 37.55056 | -3.95380 | 37055 ft | 448 kts | 206° |
| 2026-05-04 23:08 | 37.49351 | -3.98558 | 37055 ft | 448 kts | 206° |
| 2026-05-04 23:08 | 37.43679 | -4.01713 | 37062 ft | 447 kts | 206° |
| 2026-05-04 23:09 | 37.37983 | -4.04878 | 37054 ft | 446 kts | 206° |
| 2026-05-04 23:09 | 37.32285 | -4.08040 | 37081 ft | 448 kts | 206° |
| 2026-05-04 23:10 | 37.26583 | -4.11197 | 37060 ft | 448 kts | 206° |
| 2026-05-04 23:10 | 37.21836 | -4.13820 | 37081 ft | 447 kts | 206° |
| 2026-05-04 23:11 | 37.15195 | -4.17482 | 37053 ft | 447 kts | 206° |
| 2026-05-04 23:11 | 37.10436 | -4.20103 | 37063 ft | 448 kts | 206° |
| 2026-05-04 23:12 | 37.04713 | -4.23251 | 37051 ft | 448 kts | 206° |
| 2026-05-04 23:12 | 36.99034 | -4.26371 | 37050 ft | 448 kts | 206° |
| 2026-05-04 23:13 | 36.93316 | -4.29507 | 37035 ft | 448 kts | 206° |
| 2026-05-04 23:13 | 36.87599 | -4.32637 | 37027 ft | 447 kts | 206° |
| 2026-05-04 23:14 | 36.81949 | -4.35793 | 37003 ft | 444 kts | 210° |
| 2026-05-04 23:14 | 36.76683 | -4.39695 | 37027 ft | 439 kts | 214° |
| 2026-05-04 23:15 | 36.71522 | -4.43776 | 37019 ft | 439 kts | 214° |
| 2026-05-04 23:15 | 36.66385 | -4.47877 | 37020 ft | 438 kts | 214° |
| 2026-05-04 23:16 | 36.61242 | -4.51971 | 37021 ft | 439 kts | 214° |
| 2026-05-04 23:16 | 36.56088 | -4.56056 | 37020 ft | 439 kts | 214° |
| 2026-05-04 23:17 | 36.50957 | -4.60112 | 37026 ft | 439 kts | 214° |
| 2026-05-04 23:17 | 36.45792 | -4.64187 | 37031 ft | 440 kts | 214° |
| 2026-05-04 23:18 | 36.40606 | -4.68272 | 36996 ft | 440 kts | 214° |
| 2026-05-04 23:18 | 36.35471 | -4.72313 | 37034 ft | 440 kts | 214° |
| 2026-05-04 23:19 | 36.30292 | -4.76382 | 37041 ft | 440 kts | 214° |
| 2026-05-04 23:19 | 36.25106 | -4.80449 | 37047 ft | 440 kts | 214° |
| 2026-05-04 23:20 | 36.19959 | -4.84479 | 37046 ft | 440 kts | 214° |
| 2026-05-04 23:20 | 36.14777 | -4.88531 | 37044 ft | 440 kts | 214° |
| 2026-05-04 23:21 | 36.09608 | -4.92605 | 37063 ft | 440 kts | 214° |
| 2026-05-04 23:21 | 36.04467 | -4.96682 | 37065 ft | 440 kts | 214° |
| 2026-05-04 23:22 | 35.99304 | -5.00767 | 37064 ft | 440 kts | 214° |
| 2026-05-04 23:22 | 35.94145 | -5.04838 | 37069 ft | 440 kts | 214° |
| 2026-05-04 23:23 | 35.89016 | -5.08876 | 37067 ft | 440 kts | 214° |
| 2026-05-04 23:23 | 35.83863 | -5.12959 | 37047 ft | 438 kts | 216° |
| 2026-05-04 23:24 | 35.79100 | -5.17592 | 37071 ft | 434 kts | 220° |
| 2026-05-04 23:24 | 35.74470 | -5.22321 | 37073 ft | 434 kts | 220° |
| 2026-05-04 23:25 | 35.69831 | -5.27095 | 37075 ft | 434 kts | 220° |
| 2026-05-04 23:25 | 35.65182 | -5.31863 | 37075 ft | 434 kts | 220° |
| 2026-05-04 23:26 | 35.60560 | -5.36591 | 37067 ft | 434 kts | 220° |
| 2026-05-04 23:26 | 35.55899 | -5.41347 | 37085 ft | 435 kts | 220° |
| 2026-05-04 23:27 | 35.51224 | -5.46111 | 37084 ft | 435 kts | 220° |
| 2026-05-04 23:27 | 35.46587 | -5.50828 | 37071 ft | 435 kts | 220° |
| 2026-05-04 23:28 | 35.41913 | -5.55577 | 37101 ft | 435 kts | 220° |
| 2026-05-04 23:28 | 35.37275 | -5.60280 | 37086 ft | 435 kts | 220° |
| 2026-05-04 23:29 | 35.32595 | -5.65023 | 37102 ft | 435 kts | 220° |
| 2026-05-04 23:29 | 35.27915 | -5.69752 | 37110 ft | 436 kts | 220° |
| 2026-05-04 23:30 | 35.23271 | -5.74441 | 37112 ft | 436 kts | 219° |
| 2026-05-04 23:30 | 35.18590 | -5.79160 | 37111 ft | 436 kts | 219° |
| 2026-05-04 23:31 | 35.13905 | -5.83877 | 37109 ft | 436 kts | 219° |
| 2026-05-04 23:31 | 35.09217 | -5.88590 | 37088 ft | 435 kts | 219° |
| 2026-05-04 23:32 | 35.04551 | -5.93271 | 37106 ft | 436 kts | 219° |
| 2026-05-04 23:32 | 34.99850 | -5.97979 | 37104 ft | 436 kts | 219° |
| 2026-05-04 23:33 | 34.95149 | -6.02681 | 37100 ft | 436 kts | 219° |
| 2026-05-04 23:33 | 34.90452 | -6.07371 | 37101 ft | 436 kts | 219° |
| 2026-05-04 23:34 | 34.85783 | -6.12030 | 37096 ft | 437 kts | 219° |
| 2026-05-04 23:34 | 34.81077 | -6.16716 | 37093 ft | 437 kts | 219° |
| 2026-05-04 23:35 | 34.76358 | -6.21406 | 37101 ft | 437 kts | 219° |
| 2026-05-04 23:35 | 34.71641 | -6.26086 | 37094 ft | 437 kts | 219° |
| 2026-05-04 23:36 | 34.66927 | -6.30759 | 37096 ft | 437 kts | 218° |
| 2026-05-04 23:36 | 34.62212 | -6.35426 | 37092 ft | 437 kts | 218° |
| 2026-05-04 23:37 | 34.57514 | -6.40070 | 37094 ft | 437 kts | 218° |
| 2026-05-04 23:37 | 34.52792 | -6.44727 | 37094 ft | 436 kts | 218° |
| 2026-05-04 23:38 | 34.48085 | -6.49366 | 37100 ft | 436 kts | 218° |
| 2026-05-04 23:38 | 34.43400 | -6.53979 | 37098 ft | 437 kts | 218° |
| 2026-05-04 23:39 | 34.38670 | -6.58624 | 37097 ft | 437 kts | 218° |
| 2026-05-04 23:39 | 34.33944 | -6.63258 | 37098 ft | 437 kts | 218° |
| 2026-05-04 23:40 | 34.29210 | -6.67893 | 37065 ft | 437 kts | 218° |
| 2026-05-04 23:40 | 34.24509 | -6.72487 | 37099 ft | 436 kts | 218° |
| 2026-05-04 23:41 | 34.19794 | -6.77091 | 37101 ft | 435 kts | 218° |
| 2026-05-04 23:41 | 34.15082 | -6.81686 | 37104 ft | 435 kts | 218° |
| 2026-05-04 23:42 | 34.10359 | -6.86287 | 37104 ft | 435 kts | 218° |
| 2026-05-04 23:42 | 34.05662 | -6.90856 | 37105 ft | 436 kts | 218° |
| 2026-05-04 23:43 | 34.00935 | -6.95443 | 37100 ft | 436 kts | 218° |
| 2026-05-04 23:43 | 33.96210 | -7.00020 | 37110 ft | 435 kts | 218° |
| 2026-05-04 23:44 | 33.91483 | -7.04595 | 37113 ft | 435 kts | 218° |
| 2026-05-04 23:44 | 33.86764 | -7.09155 | 37112 ft | 435 kts | 218° |
| 2026-05-04 23:45 | 33.82069 | -7.13686 | 37113 ft | 435 kts | 218° |
| 2026-05-04 23:45 | 33.77336 | -7.18247 | 37110 ft | 435 kts | 218° |
| 2026-05-04 23:46 | 33.72609 | -7.22795 | 37100 ft | 434 kts | 218° |
| 2026-05-04 23:46 | 33.67888 | -7.27330 | 37103 ft | 434 kts | 218° |
| 2026-05-04 23:47 | 33.63195 | -7.31832 | 37102 ft | 434 kts | 218° |
| 2026-05-04 23:47 | 33.58460 | -7.36367 | 37104 ft | 434 kts | 218° |
| 2026-05-04 23:48 | 33.53764 | -7.40861 | 37107 ft | 434 kts | 218° |
| 2026-05-04 23:48 | 33.49036 | -7.45379 | 37112 ft | 434 kts | 218° |
| 2026-05-04 23:49 | 33.44296 | -7.49899 | 37095 ft | 433 kts | 218° |
| 2026-05-04 23:49 | 33.39599 | -7.54366 | 37102 ft | 430 kts | 218° |
| 2026-05-04 23:50 | 33.34913 | -7.58824 | 37102 ft | 430 kts | 218° |
| 2026-05-04 23:50 | 33.30255 | -7.63253 | 37102 ft | 430 kts | 218° |
| 2026-05-04 23:51 | 33.25561 | -7.67708 | 37102 ft | 431 kts | 218° |
| 2026-05-04 23:51 | 33.20863 | -7.72157 | 37107 ft | 431 kts | 218° |
| 2026-05-04 23:52 | 33.16163 | -7.76601 | 37106 ft | 431 kts | 218° |
| 2026-05-04 23:52 | 33.11451 | -7.81051 | 37107 ft | 431 kts | 218° |
| 2026-05-04 23:53 | 33.06779 | -7.85457 | 37111 ft | 431 kts | 218° |
| 2026-05-04 23:53 | 33.02067 | -7.89894 | 37113 ft | 431 kts | 218° |
| 2026-05-04 23:54 | 32.97351 | -7.94331 | 37105 ft | 431 kts | 218° |
| 2026-05-04 23:54 | 32.92664 | -7.98734 | 37105 ft | 431 kts | 218° |
| 2026-05-04 23:55 | 32.87946 | -8.03159 | 37099 ft | 430 kts | 218° |
| 2026-05-04 23:56 | 32.80937 | -8.09718 | 37104 ft | 428 kts | 218° |
| 2026-05-04 23:56 | 32.76263 | -8.14089 | 37103 ft | 428 kts | 218° |
| 2026-05-04 23:57 | 32.71581 | -8.18461 | 37103 ft | 428 kts | 218° |
| 2026-05-04 23:57 | 32.67680 | -8.22097 | 37102 ft | 428 kts | 218° |
| 2026-05-04 23:58 | 32.62225 | -8.27175 | 37102 ft | 428 kts | 218° |
| 2026-05-04 23:58 | 32.58328 | -8.30794 | 37095 ft | 425 kts | 218° |
| 2026-05-04 23:59 | 32.53681 | -8.35106 | 37106 ft | 423 kts | 218° |
| 2026-05-04 23:59 | 32.49031 | -8.39425 | 37101 ft | 425 kts | 218° |
| 2026-05-05 00:00 | 32.44361 | -8.43750 | 37097 ft | 426 kts | 218° |
| 2026-05-05 00:00 | 32.39720 | -8.48043 | 37100 ft | 425 kts | 218° |
| 2026-05-05 00:01 | 32.35052 | -8.52354 | 37100 ft | 425 kts | 218° |
| 2026-05-05 00:01 | 32.30381 | -8.56660 | 37092 ft | 424 kts | 218° |
| 2026-05-05 00:02 | 32.25743 | -8.60925 | 37096 ft | 420 kts | 218° |
| 2026-05-05 00:02 | 32.21155 | -8.65148 | 37094 ft | 420 kts | 218° |
| 2026-05-05 00:03 | 32.16545 | -8.69386 | 37096 ft | 420 kts | 218° |
| 2026-05-05 00:03 | 32.11915 | -8.73636 | 37100 ft | 421 kts | 218° |
| 2026-05-05 00:04 | 32.07309 | -8.77859 | 37089 ft | 422 kts | 218° |
| 2026-05-05 00:04 | 32.02660 | -8.82110 | 37074 ft | 421 kts | 218° |
| 2026-05-05 00:05 | 31.98043 | -8.86318 | 37089 ft | 417 kts | 218° |
| 2026-05-05 00:05 | 31.93490 | -8.90474 | 37088 ft | 416 kts | 218° |
| 2026-05-05 00:06 | 31.88910 | -8.94653 | 37097 ft | 416 kts | 218° |
| 2026-05-05 00:06 | 31.84352 | -8.98805 | 37095 ft | 416 kts | 218° |
| 2026-05-05 00:07 | 31.79764 | -9.02977 | 37093 ft | 416 kts | 218° |
| 2026-05-05 00:07 | 31.75172 | -9.07147 | 37092 ft | 416 kts | 218° |
| 2026-05-05 00:08 | 31.70617 | -9.11271 | 37094 ft | 414 kts | 218° |
| 2026-05-05 00:08 | 31.66053 | -9.15407 | 37092 ft | 414 kts | 218° |
| 2026-05-05 00:09 | 31.61483 | -9.19543 | 37087 ft | 414 kts | 218° |
| 2026-05-05 00:09 | 31.56914 | -9.23669 | 37087 ft | 414 kts | 218° |
| 2026-05-05 00:10 | 31.52376 | -9.27762 | 37083 ft | 414 kts | 218° |
| 2026-05-05 00:10 | 31.47802 | -9.31883 | 37080 ft | 414 kts | 218° |
| 2026-05-05 00:11 | 31.43236 | -9.35990 | 37077 ft | 412 kts | 218° |
| 2026-05-05 00:11 | 31.38688 | -9.40073 | 37050 ft | 410 kts | 218° |
| 2026-05-05 00:12 | 31.34190 | -9.44112 | 37069 ft | 410 kts | 218° |
| 2026-05-05 00:12 | 31.29654 | -9.48182 | 37055 ft | 410 kts | 218° |
| 2026-05-05 00:13 | 31.25104 | -9.52260 | 37049 ft | 411 kts | 218° |
| 2026-05-05 00:13 | 31.20585 | -9.56301 | 37046 ft | 412 kts | 218° |
| 2026-05-05 00:14 | 31.16019 | -9.60378 | 37000 ft | 412 kts | 218° |
| 2026-05-05 00:14 | 31.11468 | -9.64433 | 37031 ft | 410 kts | 218° |
| 2026-05-05 00:15 | 31.06966 | -9.68443 | 37028 ft | 408 kts | 218° |
| 2026-05-05 00:15 | 31.02448 | -9.72464 | 37015 ft | 408 kts | 218° |
| 2026-05-05 00:16 | 30.97928 | -9.76483 | 37017 ft | 409 kts | 218° |
| 2026-05-05 00:16 | 30.93396 | -9.80507 | 37018 ft | 409 kts | 218° |
| 2026-05-05 00:17 | 30.88897 | -9.84495 | 37008 ft | 409 kts | 218° |
| 2026-05-05 00:17 | 30.84367 | -9.88508 | 37004 ft | 409 kts | 218° |
| 2026-05-05 00:18 | 30.79835 | -9.92513 | 37005 ft | 408 kts | 218° |
| 2026-05-05 00:18 | 30.75312 | -9.96511 | 37007 ft | 408 kts | 218° |
| 2026-05-05 00:19 | 30.70793 | -10.00498 | 37015 ft | 408 kts | 218° |
| 2026-05-05 00:19 | 30.66279 | -10.04476 | 37013 ft | 408 kts | 218° |
| 2026-05-05 00:20 | 30.61752 | -10.08463 | 37014 ft | 408 kts | 218° |
| 2026-05-05 00:20 | 30.57216 | -10.12450 | 37012 ft | 408 kts | 218° |
| 2026-05-05 00:21 | 30.52711 | -10.16407 | 37018 ft | 408 kts | 218° |
| 2026-05-05 00:21 | 30.48176 | -10.20383 | 37024 ft | 408 kts | 218° |
| 2026-05-05 00:22 | 30.43672 | -10.24327 | 37018 ft | 407 kts | 218° |
| 2026-05-05 00:22 | 30.39149 | -10.28284 | 37026 ft | 407 kts | 218° |
| 2026-05-05 00:23 | 30.34621 | -10.32241 | 37028 ft | 407 kts | 218° |
| 2026-05-05 00:23 | 30.30097 | -10.36190 | 37025 ft | 407 kts | 218° |
| 2026-05-05 00:24 | 30.25577 | -10.40130 | 37024 ft | 407 kts | 218° |
| 2026-05-05 00:24 | 30.21064 | -10.44061 | 37035 ft | 407 kts | 218° |
| 2026-05-05 00:25 | 30.16540 | -10.47997 | 37032 ft | 407 kts | 218° |
| 2026-05-05 00:25 | 30.12033 | -10.51911 | 37034 ft | 407 kts | 218° |
| 2026-05-05 00:26 | 30.07506 | -10.55840 | 37038 ft | 407 kts | 218° |
| 2026-05-05 00:26 | 30.02972 | -10.59769 | 37046 ft | 407 kts | 218° |
| 2026-05-05 00:27 | 29.98435 | -10.63697 | 37045 ft | 407 kts | 218° |
| 2026-05-05 00:27 | 29.93930 | -10.67594 | 37046 ft | 407 kts | 217° |
| 2026-05-05 00:28 | 29.89385 | -10.71517 | 37049 ft | 407 kts | 217° |
| 2026-05-05 00:28 | 29.84855 | -10.75425 | 37053 ft | 407 kts | 217° |
| 2026-05-05 00:29 | 29.80321 | -10.79333 | 37055 ft | 407 kts | 217° |
| 2026-05-05 00:29 | 29.75812 | -10.83213 | 37056 ft | 407 kts | 217° |
| 2026-05-05 00:30 | 29.71266 | -10.87120 | 37068 ft | 407 kts | 217° |
| 2026-05-05 00:30 | 29.66723 | -10.91021 | 37067 ft | 407 kts | 217° |
| 2026-05-05 00:31 | 29.62188 | -10.94911 | 37079 ft | 407 kts | 217° |
| 2026-05-05 00:31 | 29.57683 | -10.98769 | 37067 ft | 406 kts | 217° |
| 2026-05-05 00:32 | 29.53155 | -11.02644 | 37070 ft | 406 kts | 217° |
| 2026-05-05 00:32 | 29.48619 | -11.06523 | 37070 ft | 406 kts | 217° |
| 2026-05-05 00:33 | 29.44113 | -11.10370 | 37069 ft | 406 kts | 217° |
| 2026-05-05 00:33 | 29.39575 | -11.14241 | 37069 ft | 406 kts | 217° |
| 2026-05-05 00:34 | 29.35040 | -11.18104 | 37053 ft | 406 kts | 217° |
| 2026-05-05 00:34 | 29.30505 | -11.21963 | 37075 ft | 406 kts | 217° |
| 2026-05-05 00:35 | 29.25998 | -11.25793 | 37075 ft | 406 kts | 217° |
| 2026-05-05 00:35 | 29.21461 | -11.29643 | 37075 ft | 406 kts | 217° |
| 2026-05-05 00:36 | 29.16908 | -11.33503 | 37081 ft | 406 kts | 217° |
| 2026-05-05 00:36 | 29.12372 | -11.37347 | 37077 ft | 406 kts | 217° |
| 2026-05-05 00:37 | 29.07857 | -11.41168 | 37075 ft | 406 kts | 217° |
| 2026-05-05 00:37 | 29.03316 | -11.45006 | 37058 ft | 405 kts | 217° |
| 2026-05-05 00:38 | 28.98759 | -11.48853 | 37078 ft | 407 kts | 217° |
| 2026-05-05 00:38 | 28.94230 | -11.52671 | 37065 ft | 406 kts | 217° |
| 2026-05-05 00:39 | 28.89667 | -11.56514 | 37068 ft | 406 kts | 217° |
| 2026-05-05 00:39 | 28.85136 | -11.60327 | 37052 ft | 406 kts | 217° |
| 2026-05-05 00:40 | 28.80579 | -11.64157 | 37056 ft | 406 kts | 217° |
| 2026-05-05 00:40 | 28.76021 | -11.67984 | 37055 ft | 406 kts | 217° |
| 2026-05-05 00:41 | 28.71494 | -11.71780 | 37047 ft | 407 kts | 216° |
| 2026-05-05 00:41 | 28.66913 | -11.75617 | 37051 ft | 408 kts | 216° |
| 2026-05-05 00:42 | 28.62339 | -11.79442 | 37052 ft | 407 kts | 216° |
| 2026-05-05 00:42 | 28.57793 | -11.83242 | 37041 ft | 407 kts | 216° |
| 2026-05-05 00:43 | 28.53219 | -11.87061 | 37043 ft | 407 kts | 216° |
| 2026-05-05 00:43 | 28.48646 | -11.90876 | 37045 ft | 407 kts | 216° |
| 2026-05-05 00:44 | 28.44099 | -11.94663 | 37046 ft | 407 kts | 216° |
| 2026-05-05 00:44 | 28.39518 | -11.98477 | 37044 ft | 408 kts | 216° |
| 2026-05-05 00:45 | 28.34933 | -12.02287 | 37038 ft | 408 kts | 216° |
| 2026-05-05 00:45 | 28.30373 | -12.06072 | 37044 ft | 408 kts | 216° |
| 2026-05-05 00:46 | 28.25790 | -12.09873 | 37043 ft | 407 kts | 216° |
| 2026-05-05 00:46 | 28.21985 | -12.13027 | 37039 ft | 407 kts | 216° |
| 2026-05-05 00:47 | 28.17397 | -12.16824 | 37039 ft | 407 kts | 216° |
| 2026-05-05 00:47 | 28.12819 | -12.20609 | 37046 ft | 407 kts | 216° |
| 2026-05-05 00:48 | 28.08240 | -12.24391 | 37037 ft | 407 kts | 216° |
| 2026-05-05 00:48 | 28.03686 | -12.28149 | 37037 ft | 407 kts | 216° |
| 2026-05-05 00:49 | 27.99100 | -12.31929 | 37038 ft | 407 kts | 216° |
| 2026-05-05 00:49 | 27.94504 | -12.35713 | 37039 ft | 407 kts | 216° |
| 2026-05-05 00:50 | 27.89939 | -12.39467 | 37039 ft | 407 kts | 216° |
| 2026-05-05 00:50 | 27.85351 | -12.43235 | 37029 ft | 407 kts | 216° |
| 2026-05-05 00:51 | 27.80773 | -12.46993 | 37029 ft | 407 kts | 216° |
| 2026-05-05 00:51 | 27.76176 | -12.50762 | 37037 ft | 407 kts | 216° |
| 2026-05-05 00:52 | 27.71619 | -12.54495 | 37027 ft | 407 kts | 216° |
| 2026-05-05 00:52 | 27.67068 | -12.58293 | 37010 ft | 405 kts | 219° |
| 2026-05-05 00:53 | 27.63037 | -12.62710 | 37037 ft | 403 kts | 224° |
| 2026-05-05 00:53 | 27.59205 | -12.67252 | 37026 ft | 402 kts | 225° |
| 2026-05-05 00:54 | 27.55376 | -12.71843 | 37026 ft | 401 kts | 225° |
| 2026-05-05 00:54 | 27.51542 | -12.76435 | 37026 ft | 401 kts | 225° |
| 2026-05-05 00:55 | 27.47705 | -12.81016 | 37028 ft | 401 kts | 225° |
| 2026-05-05 00:55 | 27.43871 | -12.85581 | 37023 ft | 401 kts | 225° |
| 2026-05-05 00:56 | 27.40054 | -12.90120 | 37024 ft | 401 kts | 225° |
| 2026-05-05 00:56 | 27.36212 | -12.94684 | 37029 ft | 401 kts | 225° |
| 2026-05-05 00:57 | 27.32363 | -12.99252 | 37029 ft | 401 kts | 225° |
| 2026-05-05 00:57 | 27.28526 | -13.03803 | 37029 ft | 401 kts | 225° |
| 2026-05-05 00:58 | 27.24702 | -13.08331 | 37033 ft | 401 kts | 225° |
| 2026-05-05 00:58 | 27.20859 | -13.12878 | 37047 ft | 401 kts | 225° |
| 2026-05-05 00:59 | 27.17015 | -13.17421 | 37047 ft | 401 kts | 225° |
| 2026-05-05 00:59 | 27.13280 | -13.22029 | 37052 ft | 400 kts | 229° |
| 2026-05-05 01:00 | 27.09821 | -13.26923 | 37046 ft | 399 kts | 229° |
| 2026-05-05 01:00 | 27.06406 | -13.31836 | 37046 ft | 399 kts | 230° |
| 2026-05-05 01:01 | 27.03003 | -13.36750 | 37044 ft | 398 kts | 229° |
| 2026-05-05 01:01 | 26.99614 | -13.41631 | 37037 ft | 399 kts | 229° |
| 2026-05-05 01:02 | 26.96200 | -13.46535 | 37036 ft | 399 kts | 229° |
| 2026-05-05 01:02 | 26.92777 | -13.51443 | 37036 ft | 399 kts | 229° |
| 2026-05-05 01:03 | 26.89379 | -13.56310 | 37032 ft | 398 kts | 229° |
| 2026-05-05 01:03 | 26.85965 | -13.61195 | 37031 ft | 398 kts | 229° |
| 2026-05-05 01:04 | 26.82544 | -13.66086 | 37036 ft | 398 kts | 229° |
| 2026-05-05 01:04 | 26.77434 | -13.73383 | 37034 ft | 399 kts | 229° |
| 2026-05-05 01:05 | 26.74001 | -13.78276 | 37034 ft | 399 kts | 229° |
| 2026-05-05 01:05 | 26.70588 | -13.83134 | 37037 ft | 399 kts | 229° |
| 2026-05-05 01:06 | 26.67154 | -13.88017 | 37039 ft | 399 kts | 230° |
| 2026-05-05 01:06 | 26.63724 | -13.92893 | 37037 ft | 398 kts | 230° |
| 2026-05-05 01:07 | 26.60292 | -13.97766 | 37037 ft | 398 kts | 229° |
| 2026-05-05 01:07 | 26.56883 | -14.02599 | 37037 ft | 398 kts | 229° |
| 2026-05-05 01:08 | 26.53445 | -14.07468 | 37037 ft | 398 kts | 229° |
| 2026-05-05 01:08 | 26.50009 | -14.12329 | 37028 ft | 398 kts | 229° |
| 2026-05-05 01:09 | 26.46573 | -14.17186 | 37028 ft | 398 kts | 229° |
| 2026-05-05 01:09 | 26.43155 | -14.22013 | 37040 ft | 399 kts | 230° |
| 2026-05-05 01:10 | 26.39701 | -14.26881 | 37028 ft | 399 kts | 229° |
| 2026-05-05 01:10 | 26.36276 | -14.31706 | 37028 ft | 398 kts | 229° |
| 2026-05-05 01:11 | 26.32831 | -14.36554 | 37028 ft | 398 kts | 229° |
| 2026-05-05 01:11 | 26.29380 | -14.41404 | 37029 ft | 398 kts | 229° |
| 2026-05-05 01:12 | 26.25951 | -14.46220 | 37026 ft | 398 kts | 229° |
| 2026-05-05 01:12 | 26.22498 | -14.51063 | 37020 ft | 398 kts | 229° |
| 2026-05-05 01:13 | 26.19047 | -14.55900 | 37018 ft | 398 kts | 229° |
| 2026-05-05 01:13 | 26.15612 | -14.60707 | 37018 ft | 398 kts | 230° |
| 2026-05-05 01:14 | 26.12171 | -14.65543 | 37012 ft | 398 kts | 231° |
| 2026-05-05 01:14 | 26.08921 | -14.70491 | 37021 ft | 399 kts | 232° |
| 2026-05-05 01:15 | 26.05696 | -14.75535 | 37005 ft | 398 kts | 232° |
| 2026-05-05 01:15 | 26.02476 | -14.80516 | 37018 ft | 398 kts | 231° |
| 2026-05-05 01:16 | 25.99214 | -14.85509 | 37019 ft | 398 kts | 231° |
| 2026-05-05 01:16 | 25.95951 | -14.90485 | 37015 ft | 398 kts | 231° |
| 2026-05-05 01:17 | 25.92696 | -14.95442 | 37011 ft | 398 kts | 231° |
| 2026-05-05 01:17 | 25.89422 | -15.00424 | 37010 ft | 399 kts | 231° |
| 2026-05-05 01:18 | 25.86163 | -15.05382 | 37010 ft | 398 kts | 231° |
| 2026-05-05 01:18 | 25.82889 | -15.10359 | 37009 ft | 398 kts | 231° |
| 2026-05-05 01:19 | 25.79615 | -15.15328 | 37002 ft | 398 kts | 231° |
| 2026-05-05 01:19 | 25.76356 | -15.20270 | 37002 ft | 398 kts | 231° |
| 2026-05-05 01:20 | 25.73077 | -15.25238 | 36997 ft | 399 kts | 231° |
| 2026-05-05 01:20 | 25.69783 | -15.30219 | 37000 ft | 400 kts | 231° |
| 2026-05-05 01:21 | 25.66510 | -15.35164 | 36998 ft | 399 kts | 231° |
| 2026-05-05 01:21 | 25.63217 | -15.40137 | 36998 ft | 399 kts | 231° |
| 2026-05-05 01:22 | 25.59925 | -15.45102 | 36995 ft | 399 kts | 231° |
| 2026-05-05 01:22 | 25.56644 | -15.50045 | 36996 ft | 399 kts | 231° |
| 2026-05-05 01:23 | 25.53350 | -15.55001 | 36989 ft | 399 kts | 231° |
| 2026-05-05 01:23 | 25.50065 | -15.59938 | 36992 ft | 399 kts | 231° |
| 2026-05-05 01:24 | 25.46768 | -15.64889 | 37010 ft | 399 kts | 231° |
| 2026-05-05 01:24 | 25.43465 | -15.69846 | 36995 ft | 399 kts | 231° |
| 2026-05-05 01:25 | 25.40163 | -15.74795 | 36980 ft | 399 kts | 231° |
| 2026-05-05 01:25 | 25.36880 | -15.79711 | 36987 ft | 400 kts | 231° |
| 2026-05-05 01:26 | 25.33560 | -15.84675 | 36990 ft | 400 kts | 231° |
| 2026-05-05 01:26 | 25.30249 | -15.89620 | 36991 ft | 400 kts | 231° |
| 2026-05-05 01:27 | 25.26952 | -15.94540 | 36990 ft | 400 kts | 231° |
| 2026-05-05 01:27 | 25.23635 | -15.99486 | 36989 ft | 400 kts | 231° |
| 2026-05-05 01:28 | 25.20340 | -16.04393 | 36989 ft | 400 kts | 231° |
| 2026-05-05 01:28 | 25.17022 | -16.09328 | 36992 ft | 400 kts | 231° |
| 2026-05-05 01:29 | 25.13701 | -16.14265 | 36991 ft | 400 kts | 231° |
| 2026-05-05 01:29 | 25.10381 | -16.19192 | 36985 ft | 400 kts | 231° |
| 2026-05-05 01:30 | 25.07075 | -16.24096 | 36988 ft | 400 kts | 231° |
| 2026-05-05 01:30 | 25.03755 | -16.29016 | 36947 ft | 400 kts | 231° |
| 2026-05-05 01:31 | 25.00284 | -16.33819 | 36994 ft | 401 kts | 225° |
| 2026-05-05 01:31 | 24.95928 | -16.37687 | 36974 ft | 406 kts | 214° |
| 2026-05-05 01:32 | 24.91092 | -16.40920 | 36984 ft | 411 kts | 212° |
| 2026-05-05 01:32 | 24.86113 | -16.44109 | 36985 ft | 414 kts | 212° |
| 2026-05-05 01:33 | 24.81962 | -16.46777 | 36983 ft | 415 kts | 212° |
| 2026-05-05 01:33 | 24.76176 | -16.50532 | 36983 ft | 414 kts | 212° |
| 2026-05-05 01:34 | 24.72043 | -16.53225 | 36986 ft | 414 kts | 212° |
| 2026-05-05 01:34 | 24.67082 | -16.56460 | 36982 ft | 415 kts | 212° |
| 2026-05-05 01:35 | 24.62089 | -16.59709 | 36977 ft | 416 kts | 212° |
| 2026-05-05 01:35 | 24.57107 | -16.62944 | 36983 ft | 416 kts | 212° |
| 2026-05-05 01:36 | 24.52160 | -16.66155 | 36982 ft | 415 kts | 212° |
| 2026-05-05 01:36 | 24.47170 | -16.69393 | 36981 ft | 415 kts | 212° |
| 2026-05-05 01:37 | 24.42189 | -16.72621 | 36977 ft | 415 kts | 212° |
| 2026-05-05 01:37 | 24.37230 | -16.75832 | 36951 ft | 415 kts | 212° |
| 2026-05-05 01:38 | 24.32232 | -16.79067 | 36978 ft | 418 kts | 212° |
| 2026-05-05 01:38 | 24.27217 | -16.82306 | 36980 ft | 418 kts | 212° |
| 2026-05-05 01:39 | 24.22231 | -16.85523 | 36980 ft | 418 kts | 212° |
| 2026-05-05 01:39 | 24.17212 | -16.88761 | 36978 ft | 418 kts | 212° |
| 2026-05-05 01:40 | 24.12195 | -16.91994 | 36978 ft | 418 kts | 212° |
| 2026-05-05 01:40 | 24.07216 | -16.95200 | 36980 ft | 418 kts | 212° |
| 2026-05-05 01:41 | 24.02187 | -16.98436 | 36968 ft | 418 kts | 212° |
| 2026-05-05 01:41 | 23.97183 | -17.01652 | 36977 ft | 419 kts | 212° |
| 2026-05-05 01:42 | 23.92146 | -17.04885 | 36977 ft | 419 kts | 212° |
| 2026-05-05 01:42 | 23.87141 | -17.08096 | 36980 ft | 419 kts | 212° |
| 2026-05-05 01:43 | 23.82101 | -17.11326 | 36985 ft | 419 kts | 212° |
| 2026-05-05 01:43 | 23.79583 | -17.12939 | 36981 ft | 419 kts | 212° |